Time;durP1;ratioP1;P1;durP2;ratioP2;P2;SDS_P1;SDS_P2;PMS_P1;PMS_P2;Temp;Humidity;BMP_temperature;BMP_pressure;BME280_temperature;BME280_humidity;BME280_pressure;Samples;Min_cycle;Max_cycle;Signal;HPM_P1;HPM_P2
2021/07/09 00:01:24;;;;;;;5.63;2.50;;;26.20;99.90;;;25.54;66.53;100386.25;5046787;28;20416;-60
2021/07/09 00:03:50;;;;;;;3.95;2.80;;;26.10;99.90;;;25.49;66.53;100387.03;5048828;28;20033;-56
2021/07/09 00:06:21;;;;;;;3.28;2.17;;;26.00;99.90;;;25.45;66.54;100393.91;5027534;28;20047;-57
2021/07/09 00:08:48;;;;;;;6.47;2.15;;;26.00;99.90;;;25.38;67.06;100388.72;5029807;28;20472;-54
2021/07/09 00:11:15;;;;;;;3.70;2.78;;;25.90;99.90;;;25.43;66.83;100388.00;5046542;28;20079;-53
2021/07/09 00:13:42;;;;;;;8.13;2.67;;;25.90;99.90;;;25.54;66.69;100387.06;5045938;28;20075;-55
2021/07/09 00:16:12;;;;;;;7.35;2.63;;;26.00;99.90;;;25.46;67.17;100392.84;5046785;28;20028;-59
2021/07/09 00:18:38;;;;;;;7.88;2.75;;;26.00;99.90;;;25.27;68.23;100392.28;5047379;28;20037;-56
2021/07/09 00:21:04;;;;;;;4.25;2.70;;;25.90;99.90;;;25.08;68.67;100393.56;5044876;28;20543;-59
2021/07/09 00:23:30;;;;;;;6.68;2.80;;;25.70;99.90;;;24.98;69.29;100393.41;5045826;28;20353;-55
2021/07/09 00:25:58;;;;;;;10.00;3.63;;;25.60;99.90;;;24.91;69.36;100401.53;5040281;28;20414;-53
2021/07/09 00:28:25;;;;;;;6.15;3.00;;;25.50;99.90;;;24.86;69.97;100395.28;5045511;28;20086;-58
2021/07/09 00:30:50;;;;;;;4.65;2.45;;;25.40;99.90;;;24.86;69.77;100392.63;5044688;28;20037;-54
2021/07/09 00:33:19;;;;;;;4.45;2.83;;;25.40;99.90;;;24.75;70.49;100396.97;5046094;28;20454;-58
2021/07/09 00:35:47;;;;;;;6.10;2.90;;;25.30;99.90;;;24.71;70.93;100403.81;5046666;28;20137;-58
2021/07/09 00:38:13;;;;;;;4.40;2.63;;;25.30;99.90;;;24.62;71.24;100400.72;5034579;28;20526;-59
2021/07/09 00:40:39;;;;;;;6.75;3.15;;;25.20;99.90;;;24.58;71.42;100404.09;5045920;28;20052;-57
2021/07/09 00:43:06;;;;;;;6.68;2.78;;;25.20;99.90;;;24.53;71.26;100396.84;5045931;28;20500;-57
2021/07/09 00:45:32;;;;;;;5.00;2.70;;;25.10;99.90;;;24.51;71.71;100408.78;5047579;28;20168;-55
2021/07/09 00:47:58;;;;;;;5.07;3.15;;;25.10;99.90;;;24.50;71.68;100402.66;5043514;28;20492;-58
2021/07/09 00:50:24;;;;;;;13.65;2.92;;;25.10;99.90;;;24.50;72.08;100413.31;5047387;28;20441;-58
2021/07/09 00:52:50;;;;;;;3.53;3.05;;;25.00;99.90;;;24.51;71.65;100414.91;5044925;28;20036;-55
2021/07/09 00:55:18;;;;;;;6.78;3.30;;;25.00;99.90;;;24.48;72.33;100416.19;5045800;28;20043;-53
2021/07/09 00:57:52;;;;;;;7.28;3.00;;;25.00;99.90;;;24.45;72.82;100431.84;5036228;28;20060;-58
2021/07/09 01:00:21;;;;;;;6.43;3.10;;;25.00;99.90;;;24.46;72.38;100433.47;5047310;28;20138;-60
2021/07/09 01:02:48;;;;;;;6.75;2.90;;;25.00;99.90;;;24.48;72.14;100442.81;5045091;28;20029;-58
2021/07/09 01:05:17;;;;;;;5.05;2.58;;;25.00;99.90;;;24.46;72.47;100444.91;5047324;28;20040;-56
2021/07/09 01:08:03;;;;;;;7.55;2.83;;;25.00;99.90;;;24.33;73.10;100445.19;5043325;28;20140;-58
2021/07/09 01:10:30;;;;;;;4.03;2.90;;;24.90;99.90;;;24.14;73.45;100452.47;5025815;28;20048;-54
2021/07/09 01:12:56;;;;;;;7.30;3.50;;;24.80;99.90;;;23.98;73.94;100445.22;5045722;28;20221;-52
2021/07/09 01:15:22;;;;;;;7.57;2.30;;;24.60;99.90;;;23.93;74.35;100453.09;5047279;28;20075;-59
2021/07/09 01:17:49;;;;;;;5.55;2.97;;;24.50;99.90;;;23.77;74.75;100457.25;5045257;28;20078;-56
2021/07/09 01:20:18;;;;;;;7.07;2.90;;;24.40;99.90;;;23.72;74.53;100458.97;5021380;28;20223;-55
2021/07/09 01:22:47;;;;;;;5.70;3.28;;;24.30;99.90;;;23.63;75.35;100460.38;5039523;28;20045;-55
2021/07/09 01:25:19;;;;;;;6.25;3.00;;;24.20;99.90;;;23.52;75.53;100469.13;5028932;28;20090;-55
2021/07/09 01:27:50;;;;;;;6.45;2.67;;;24.20;99.90;;;23.42;75.77;100475.81;5045886;28;20045;-58
2021/07/09 01:30:22;;;;;;;6.95;2.13;;;24.00;99.90;;;23.35;76.05;100475.09;5047036;28;20057;-58
2021/07/09 01:32:50;;;;;;;3.47;1.83;;;24.00;99.90;;;23.30;75.27;100474.97;5044832;28;20029;-56
2021/07/09 01:35:17;;;;;;;5.05;2.15;;;23.90;99.90;;;23.28;74.93;100481.53;5029074;28;20044;-59
2021/07/09 01:38:03;;;;;;;4.13;1.80;;;23.90;99.90;;;23.26;74.93;100481.75;5045123;28;20404;-59
2021/07/09 01:40:31;;;;;;;4.13;1.48;;;23.90;99.90;;;23.29;74.21;100488.47;5045734;28;20311;-59
2021/07/09 01:42:57;;;;;;;3.28;1.42;;;23.80;99.90;;;23.31;74.20;100489.88;5031437;28;20381;-59
2021/07/09 01:45:24;;;;;;;4.47;1.98;;;23.90;99.90;;;23.31;74.18;100489.06;5027046;28;20118;-57
2021/07/09 01:47:52;;;;;;;2.42;1.50;;;23.90;99.90;;;23.28;73.68;100495.63;5039504;28;20045;-56
2021/07/09 01:50:20;;;;;;;3.40;1.60;;;23.90;99.90;;;23.22;74.10;100493.88;5028982;28;20545;-58
2021/07/09 01:52:46;;;;;;;4.10;1.77;;;23.80;99.90;;;23.11;74.43;100497.34;5038728;28;20141;-57
2021/07/09 01:55:22;;;;;;;4.15;1.95;;;23.70;99.90;;;23.01;74.82;100502.38;5048396;28;20039;-57
2021/07/09 01:57:48;;;;;;;;;;;23.60;99.90;;;22.87;76.51;100508.91;5051152;28;20146;-57
2021/07/09 02:00:18;;;;;;;4.28;1.85;;;23.50;99.90;;;22.69;75.77;100505.19;5043408;28;20007;-59
2021/07/09 02:02:44;;;;;;;3.50;1.70;;;23.30;99.90;;;22.64;76.22;100499.75;5049589;28;20507;-57
2021/07/09 02:05:17;;;;;;;3.45;1.80;;;23.30;99.90;;;22.71;76.27;100503.13;5050611;28;20052;-61
2021/07/09 02:07:47;;;;;;;7.32;2.35;;;23.20;99.90;;;22.52;77.20;100502.34;5049236;28;20457;-59
2021/07/09 02:10:19;;;;;;;6.82;1.88;;;23.20;99.90;;;22.45;77.75;100501.59;5048950;28;20041;-53
2021/07/09 02:12:54;;;;;;;6.50;1.17;;;23.10;99.90;;;22.38;76.91;100500.84;5046680;28;20186;-59
2021/07/09 02:15:24;;;;;;;6.15;0.93;;;23.00;99.90;;;22.39;76.44;100512.28;5032188;28;20040;-54
2021/07/09 02:17:50;;;;;;;6.07;1.23;;;22.90;99.90;;;22.32;76.96;100508.88;5049208;28;20119;-58
2021/07/09 02:20:20;;;;;;;6.30;1.27;;;22.90;99.90;;;22.28;77.27;100505.03;5050404;28;20578;-53
2021/07/09 02:22:53;;;;;;;5.60;1.27;;;22.90;99.90;;;22.24;77.44;100512.63;5016814;28;20037;-60
2021/07/09 02:25:19;;;;;;;5.50;1.25;;;22.80;99.90;;;22.21;77.16;100512.28;5029744;28;20099;-53
2021/07/09 02:27:48;;;;;;;1.67;0.70;;;22.80;99.90;;;22.23;76.86;100507.53;5050315;28;20459;-60
2021/07/09 02:30:18;;;;;;;3.30;0.77;;;22.70;99.90;;;22.20;77.22;100508.00;5034620;28;20060;-58
2021/07/09 02:32:46;;;;;;;4.18;0.93;;;22.80;99.90;;;22.14;77.16;100517.66;5034384;28;20049;-55
2021/07/09 02:35:16;;;;;;;1.60;0.63;;;22.70;99.90;;;22.08;77.21;100511.38;5048955;28;20021;-56
2021/07/09 02:37:44;;;;;;;5.43;0.90;;;22.70;99.90;;;22.08;77.24;100510.56;5048677;28;20060;-59
2021/07/09 02:40:16;;;;;;;2.03;0.60;;;22.70;99.90;;;22.09;77.32;100507.69;5046945;28;20029;-55
2021/07/09 02:42:45;;;;;;;2.85;0.52;;;22.70;99.90;;;22.09;76.76;100502.41;5044557;28;20084;-58
2021/07/09 02:45:12;;;;;;;2.17;0.40;;;22.60;99.90;;;22.00;77.15;100510.81;5049805;28;20079;-54
2021/07/09 02:47:40;;;;;;;3.28;0.40;;;22.60;99.90;;;21.95;77.54;100506.16;5048649;28;20087;-58
2021/07/09 02:50:13;;;;;;;1.88;0.68;;;22.50;99.90;;;21.95;77.59;100506.16;5049793;28;20048;-58
2021/07/09 02:52:39;;;;;;;0.82;0.50;;;22.50;99.90;;;21.90;77.93;100498.03;5034133;28;20326;-50
2021/07/09 02:55:07;;;;;;;2.05;0.50;;;22.50;99.90;;;21.90;77.94;100506.00;5037270;28;20037;-60
2021/07/09 02:57:36;;;;;;;4.22;0.85;;;22.50;99.90;;;21.83;78.44;100513.19;5049331;28;20384;-56
2021/07/09 03:00:06;;;;;;;1.83;0.60;;;22.40;99.90;;;21.78;78.60;100521.78;5048564;28;20037;-57
2021/07/09 03:02:31;;;;;;;3.38;0.50;;;22.40;99.90;;;21.67;78.54;100513.75;5048193;28;20106;-53
2021/07/09 03:04:57;;;;;;;1.40;0.47;;;22.30;99.90;;;21.59;79.37;100521.97;5046311;28;20480;-53
2021/07/09 03:07:23;;;;;;;2.75;0.68;;;22.20;99.90;;;21.57;79.48;100522.19;5037644;28;20072;-53
2021/07/09 03:09:49;;;;;;;2.58;0.50;;;22.20;99.90;;;21.58;79.24;100525.66;5035897;28;20397;-54
2021/07/09 03:12:15;;;;;;;3.10;0.70;;;22.10;99.90;;;21.55;79.22;100516.28;5047541;28;20063;-54
2021/07/09 03:14:41;;;;;;;4.55;0.60;;;22.10;99.90;;;21.60;79.54;100528.91;5048177;28;20024;-57
2021/07/09 03:17:08;;;;;;;1.73;0.55;;;22.10;99.90;;;21.64;79.42;100528.25;5049296;28;20029;-59
2021/07/09 03:19:34;;;;;;;7.13;0.73;;;22.20;99.90;;;21.59;79.38;100522.78;5048235;28;20086;-55
2021/07/09 03:22:00;;;;;;;6.28;0.80;;;22.10;99.90;;;21.57;79.47;100518.72;5047056;28;20049;-59
2021/07/09 03:24:28;;;;;;;2.13;0.68;;;22.10;99.90;;;21.59;79.79;100533.38;5047903;28;20094;-55
2021/07/09 03:26:54;;;;;;;3.83;0.73;;;22.20;99.90;;;21.63;79.49;100531.13;5048892;28;20367;-56
2021/07/09 03:29:20;;;;;;;3.45;0.70;;;22.20;99.90;;;21.62;79.88;100540.91;5047807;28;20041;-53
2021/07/09 03:31:46;;;;;;;1.98;0.68;;;22.20;99.90;;;21.69;79.61;100549.63;5047975;28;20144;-58
2021/07/09 03:34:12;;;;;;;2.90;0.60;;;22.20;99.90;;;21.77;79.07;100552.00;5048443;28;20040;-54
2021/07/09 03:36:43;;;;;;;6.07;0.68;;;22.30;99.90;;;21.74;79.53;100546.34;5022870;28;20055;-57
2021/07/09 03:39:11;;;;;;;1.45;0.70;;;22.30;99.90;;;21.61;79.94;100549.06;5011716;28;20183;-56
2021/07/09 03:41:39;;;;;;;2.55;0.63;;;22.20;99.90;;;21.51;80.20;100547.72;5047151;28;20053;-52
2021/07/09 03:44:09;;;;;;;3.08;1.15;;;22.20;99.90;;;21.51;80.36;100544.25;5047568;28;20083;-59
2021/07/09 03:46:36;;;;;;;4.35;1.23;;;22.10;99.90;;;21.54;80.23;100546.47;5031011;28;20032;-58
2021/07/09 03:49:04;;;;;;;6.22;0.55;;;22.10;99.90;;;21.57;80.14;100547.88;5029620;28;20029;-54
2021/07/09 03:51:30;;;;;;;9.57;0.75;;;22.10;99.90;;;21.59;79.54;100553.78;5168815;23;20058;-50
2021/07/09 03:53:56;;;;;;;1.45;0.63;;;22.20;99.90;;;21.58;80.23;100546.84;4989488;28;20096;-56
2021/07/09 03:56:24;;;;;;;4.38;0.80;;;22.20;99.90;;;21.57;80.42;100547.88;4989349;28;20447;-54
2021/07/09 03:58:50;;;;;;;3.85;1.20;;;22.20;99.90;;;21.61;80.09;100555.19;4989546;28;20081;-55
2021/07/09 04:01:16;;;;;;;2.08;0.60;;;22.20;99.90;;;21.60;79.94;100545.63;4989330;28;20398;-56
2021/07/09 04:03:42;;;;;;;2.08;0.60;;;22.20;99.90;;;21.69;79.80;100549.63;4989507;28;20079;-56
2021/07/09 04:06:11;;;;;;;5.78;0.93;;;22.20;99.90;;;21.67;80.11;100550.88;4989267;28;20537;-57
2021/07/09 04:08:37;;;;;;;1.25;0.60;;;22.20;99.90;;;21.55;80.65;100552.59;4989122;28;20110;-54
2021/07/09 04:11:03;;;;;;;3.08;1.10;;;22.20;99.90;;;21.67;80.68;100559.63;4989355;28;20030;-53
2021/07/09 04:13:33;;;;;;;3.45;1.15;;;22.20;99.90;;;23.29;75.68;100544.28;4988931;28;20100;-58
2021/07/09 04:15:59;;;;;;;2.72;0.90;;;23.50;99.90;;;24.46;71.10;100555.97;4988817;28;20046;-55
2021/07/09 04:18:27;;;;;;;3.08;1.20;;;25.50;99.90;;;25.63;67.03;100544.88;4989296;28;20050;-56
2021/07/09 04:20:53;;;;;;;4.30;0.93;;;26.80;99.90;;;24.97;68.73;100549.03;4988991;28;20030;-58
2021/07/09 04:23:19;;;;;;;2.70;1.13;;;26.80;99.90;;;24.83;69.63;100558.31;4988817;28;20045;-57
2021/07/09 04:25:45;;;;;;;1.42;0.88;;;25.90;99.90;;;26.51;64.07;100556.63;4989293;28;20458;-55
2021/07/09 04:28:11;;;;;;;4.57;1.10;;;27.70;99.90;;;27.65;60.75;100562.75;4988699;28;20133;-55
2021/07/09 04:30:37;;;;;;;13.23;1.13;;;29.30;97.10;;;28.42;58.39;100574.81;4988546;28;20445;-57
2021/07/09 04:33:03;;;;;;;1.92;0.85;;;30.40;93.80;;;29.02;56.26;100573.50;4988685;28;20038;-51
2021/07/09 04:35:29;;;;;;;2.17;0.80;;;31.30;90.70;;;29.90;54.00;100571.47;4988798;28;20323;-55
2021/07/09 04:37:55;;;;;;;3.03;0.60;;;32.20;85.50;;;30.64;51.83;100570.84;4988782;28;20034;-57
2021/07/09 04:40:21;;;;;;;5.80;0.80;;;33.00;80.40;;;31.50;49.48;100568.75;4989172;28;20034;-55
2021/07/09 04:42:47;;;;;;;1.40;0.57;;;34.00;75.40;;;31.85;48.50;100570.38;4988669;28;20041;-60
2021/07/09 04:45:14;;;;;;;2.20;0.45;;;34.80;70.30;;;29.86;53.45;100572.28;4988432;28;20062;-57
2021/07/09 04:47:40;;;;;;;2.55;0.40;;;33.10;72.60;;;28.39;57.32;100575.34;4988427;28;20072;-56
2021/07/09 04:50:07;;;;;;;4.00;0.80;;;31.10;78.90;;;27.09;60.58;100569.41;4988555;28;20049;-57
2021/07/09 04:52:34;;;;;;;4.10;0.70;;;29.50;84.40;;;25.95;64.01;100569.19;4988079;28;20465;-57
2021/07/09 04:55:00;;;;;;;4.05;0.70;;;28.30;90.10;;;26.30;63.12;100576.91;4988468;28;20061;-60
2021/07/09 04:57:26;;;;;;;4.07;0.80;;;27.90;92.50;;;27.05;60.20;100570.97;4988319;28;20038;-56
2021/07/09 04:59:52;;;;;;;3.25;0.50;;;29.00;90.60;;;26.50;61.79;100579.06;4988166;28;20121;-56
2021/07/09 05:02:18;;;;;;;2.60;0.47;;;28.60;90.90;;;26.17;62.96;100587.91;4988261;28;20824;-56
2021/07/09 05:04:44;;;;;;;3.63;0.80;;;27.90;93.00;;;25.86;64.25;100590.13;4988323;28;20042;-56
2021/07/09 05:07:12;;;;;;;5.28;0.85;;;27.50;94.30;;;25.64;64.62;100589.22;4988250;28;20053;-54
2021/07/09 05:09:41;;;;;;;2.15;0.70;;;27.20;95.30;;;25.52;65.16;100591.91;4988179;28;20042;-57
2021/07/09 05:12:07;;;;;;;3.63;0.70;;;27.10;96.20;;;26.80;61.34;100594.72;4987247;28;20042;-53
2021/07/09 05:14:38;;;;;;;1.15;0.52;;;28.10;95.20;;;28.08;56.79;100590.41;4987972;28;20476;-57
2021/07/09 05:17:04;;;;;;;4.32;0.52;;;30.60;88.80;;;26.68;60.91;100600.16;4987998;28;20433;-59
2021/07/09 05:19:30;;;;;;;1.67;0.40;;;29.00;91.30;;;25.76;64.17;100597.97;4988093;28;20066;-55
2021/07/09 05:21:56;;;;;;;3.65;0.63;;;27.60;94.30;;;25.39;65.89;100602.88;4988046;28;20070;-58
2021/07/09 05:24:26;;;;;;;2.25;0.65;;;26.80;96.70;;;25.97;64.68;100599.94;4987928;28;20072;-55
2021/07/09 05:26:53;;;;;;;4.57;0.60;;;27.00;98.00;;;27.04;61.24;100590.75;4986224;28;20038;-56
2021/07/09 05:29:22;;;;;;;3.63;0.80;;;28.40;95.10;;;28.57;56.32;100593.69;4989574;28;20046;-55
2021/07/09 05:31:48;;;;;;;1.67;0.70;;;30.90;88.90;;;29.44;54.27;100594.00;4992408;28;20043;-58
2021/07/09 05:34:21;;;;;;;2.75;0.45;;;31.80;84.00;;;28.94;55.27;100598.16;4991792;28;20027;-53
2021/07/09 05:36:50;;;;;;;2.03;0.60;;;31.70;81.60;;;30.67;51.52;100597.19;4991812;28;20481;-55
2021/07/09 05:39:16;;;;;;;1.35;0.63;;;32.70;79.00;;;31.70;48.18;100592.03;4991656;28;20104;-56
2021/07/09 05:41:45;;;;;;;0.93;0.30;;;35.10;68.80;;;32.57;45.33;100590.94;4991666;28;20480;-56
2021/07/09 05:44:13;;;;;;;2.05;0.20;;;35.50;64.20;;;33.84;41.73;100594.59;4992124;28;20049;-61
2021/07/09 05:46:39;;;;;;;0.60;0.20;;;37.40;58.00;;;34.60;39.33;100595.88;4992294;28;20136;-57
2021/07/09 05:49:06;;;;;;;1.48;0.20;;;38.50;53.60;;;34.70;38.08;100599.47;4991754;28;20034;-58
2021/07/09 05:51:31;;;;;;;1.17;0.13;;;38.90;51.60;;;35.04;37.05;100599.84;4991502;28;20073;-59
2021/07/09 05:53:57;;;;;;;0.95;0.20;;;39.50;48.60;;;35.32;36.27;100599.81;4991777;28;20038;-50
2021/07/09 05:56:23;;;;;;;1.40;0.20;;;39.80;47.60;;;35.64;35.84;100601.47;4991589;28;20042;-58
2021/07/09 05:58:49;;;;;;;0.90;0.28;;;40.10;47.00;;;35.85;35.58;100611.53;4991644;28;20177;-56
2021/07/09 06:01:15;;;;;;;1.55;0.20;;;40.40;47.00;;;36.14;35.08;100612.94;4991587;28;20084;-59
2021/07/09 06:03:41;;;;;;;2.53;0.30;;;40.70;45.70;;;36.22;35.02;100614.91;4991734;28;20076;-53
2021/07/09 06:06:07;;;;;;;2.45;0.20;;;41.00;45.70;;;35.71;35.61;100616.19;5006270;28;20065;-52
2021/07/09 06:08:33;;;;;;;2.08;0.20;;;40.50;45.30;;;36.48;33.77;100606.88;4991255;28;20117;-58
2021/07/09 06:10:59;;;;;;;4.13;0.20;;;40.90;44.90;;;36.66;33.43;100607.75;4991429;28;20045;-54
2021/07/09 06:13:25;;;;;;;4.32;0.35;;;41.20;44.10;;;36.77;33.32;100609.09;4991189;28;20177;-59
2021/07/09 06:15:51;;;;;;;1.15;0.20;;;41.30;44.10;;;36.39;33.67;100608.78;4991475;28;20474;-54
2021/07/09 06:18:17;;;;;;;5.40;0.20;;;41.20;44.10;;;36.50;33.03;100604.66;4991306;28;20038;-52
2021/07/09 06:20:45;;;;;;;1.25;0.20;;;41.30;43.00;;;36.05;33.72;100606.69;4991190;28;20026;-58
2021/07/09 06:23:11;;;;;;;1.77;0.30;;;40.90;43.10;;;36.18;33.11;100611.22;4990742;28;20034;-55
2021/07/09 06:25:37;;;;;;;0.70;0.30;;;40.90;43.10;;;36.00;33.29;100612.22;4989701;28;20378;-58
2021/07/09 06:28:04;;;;;;;0.85;0.20;;;40.70;43.20;;;35.65;33.82;100609.28;4991376;28;20062;-60
2021/07/09 06:30:30;;;;;;;2.17;0.10;;;40.60;43.30;;;35.62;33.62;100595.56;4991105;28;20081;-55
2021/07/09 06:32:56;;;;;;;2.72;0.20;;;40.60;43.30;;;35.84;32.26;100596.38;4991058;28;20030;-54
2021/07/09 06:35:25;;;;;;;3.28;0.20;;;40.70;42.50;;;35.19;32.68;100599.50;4991404;28;20161;-54
2021/07/09 06:37:53;;;;;;;1.80;0.10;;;40.10;42.20;;;35.38;31.96;100602.09;4989459;28;20049;-57
2021/07/09 06:40:19;;;;;;;1.08;0.10;;;40.10;41.70;;;35.57;29.60;100604.59;4989806;28;20061;-55
2021/07/09 06:42:45;;;;;;;0.10;0.00;;;40.30;39.10;;;34.61;28.34;100599.38;4990844;28;20154;-53
2021/07/09 06:45:12;;;;;;;0.70;0.00;;;39.80;37.30;;;34.44;28.45;100608.13;4989202;28;20378;-56
2021/07/09 06:47:38;;;;;;;2.97;0.10;;;39.30;38.40;;;34.52;29.04;100601.97;4990684;28;20038;-57
2021/07/09 06:50:05;;;;;;;6.18;0.10;;;39.30;38.50;;;35.32;28.96;100600.59;4990407;28;20035;-58
2021/07/09 06:52:31;;;;;;;1.75;0.20;;;39.90;39.10;;;35.62;28.95;100599.06;4990133;28;20433;-56
2021/07/09 06:54:58;;;;;;;0.55;0.10;;;40.40;39.00;;;35.66;29.43;100608.19;4989123;28;20066;-57
2021/07/09 06:57:24;;;;;;;1.38;0.10;;;40.60;39.00;;;35.29;29.60;100601.19;4990894;28;20044;-51
2021/07/09 06:59:50;;;;;;;2.17;0.20;;;40.30;39.30;;;34.55;29.29;100609.50;4990520;28;20026;-62
2021/07/09 07:02:16;;;;;;;0.93;0.10;;;39.10;38.80;;;34.12;29.95;100608.94;4990332;28;20463;-54
2021/07/09 07:04:42;;;;;;;0.73;0.10;;;38.70;39.60;;;34.56;29.30;100603.00;4988633;28;20111;-58
2021/07/09 07:07:08;;;;;;;1.13;0.20;;;39.20;39.20;;;35.23;29.30;100594.28;4990280;28;20058;-52
2021/07/09 07:09:37;;;;;;;0.60;0.30;;;39.80;39.40;;;35.97;28.94;100607.44;4990264;28;20049;-55
2021/07/09 07:12:07;;;;;;;4.45;0.30;;;40.60;39.10;;;36.23;28.50;100606.47;4988808;28;20041;-58
2021/07/09 07:14:34;;;;;;;2.40;0.20;;;41.10;38.60;;;36.04;28.38;100602.38;4989967;28;20038;-59
2021/07/09 07:17:01;;;;;;;1.63;0.10;;;41.10;38.50;;;35.29;29.41;100603.09;4989774;28;20070;-57
2021/07/09 07:19:27;;;;;;;0.40;0.10;;;40.00;40.00;;;33.26;32.27;100607.59;4989735;28;20113;-60
2021/07/09 07:22:02;;;;;;;0.88;0.20;;;36.80;43.40;;;31.98;33.99;100608.22;4989857;28;20082;-60
2021/07/09 07:24:29;;;;;;;;;;;34.20;46.80;;;31.09;32.37;100606.66;4988694;28;20100;-58
2021/07/09 07:26:58;;;;;;;0.25;0.10;;;32.70;45.60;;;30.71;33.59;100604.69;4990139;28;20427;-59
2021/07/09 07:29:25;;;;;;;0.20;0.00;;;31.90;46.90;;;30.28;31.93;100610.41;4990275;28;20457;-59
2021/07/09 07:31:53;;;;;;;0.55;0.00;;;31.30;45.70;;;30.23;31.68;100612.31;4989208;28;20481;-59
2021/07/09 07:34:20;;;;;;;0.63;0.05;;;31.00;46.00;;;30.09;31.56;100611.25;4989554;28;20507;-57
2021/07/09 07:36:46;;;;;;;0.40;0.00;;;30.70;46.50;;;30.11;32.45;100614.47;4989378;28;20378;-56
2021/07/09 07:39:12;;;;;;;0.17;0.00;;;30.70;47.50;;;29.91;33.40;100621.44;4989637;28;20452;-59
2021/07/09 07:41:39;;;;;;;0.22;0.00;;;30.50;47.80;;;29.80;33.44;100622.50;4989731;28;20077;-55
2021/07/09 07:44:05;;;;;;;1.15;0.00;;;30.40;48.00;;;29.87;32.93;100624.91;4989310;28;20037;-58
2021/07/09 07:46:31;;;;;;;0.65;0.10;;;30.40;47.60;;;29.92;32.66;100628.41;4990088;28;20034;-60
2021/07/09 07:48:57;;;;;;;3.25;0.00;;;30.40;47.80;;;29.85;32.38;100627.88;4988309;28;20042;-60
2021/07/09 07:51:26;;;;;;;2.05;0.08;;;30.40;47.40;;;29.95;32.07;100625.19;4988893;28;20094;-58
2021/07/09 07:53:52;;;;;;;0.10;0.00;;;30.50;47.60;;;29.59;32.18;100623.56;4989506;28;20031;-59
2021/07/09 07:56:19;;;;;;;0.20;0.00;;;30.30;47.00;;;29.52;32.81;100625.69;4989430;28;20544;-59
2021/07/09 07:58:45;;;;;;;0.55;0.00;;;30.10;47.30;;;28.87;33.68;100629.75;4989436;28;20087;-57
2021/07/09 08:01:15;;;;;;;1.55;0.00;;;29.50;47.60;;;28.93;32.15;100631.41;4989219;28;20038;-55
2021/07/09 08:03:41;;;;;;;0.20;0.00;;;29.40;47.60;;;28.87;31.84;100627.88;4987747;28;20026;-57
2021/07/09 08:06:07;;;;;;;2.05;0.10;;;29.40;46.80;;;29.37;31.47;100629.94;4989356;28;20132;-57
2021/07/09 08:08:33;;;;;;;1.77;0.00;;;29.70;47.00;;;29.60;32.55;100625.19;4989208;28;20117;-54
2021/07/09 08:11:00;;;;;;;2.90;0.10;;;30.00;47.60;;;29.83;31.93;100624.66;5002583;28;20082;-61
2021/07/09 08:13:26;;;;;;;3.60;0.00;;;30.20;47.30;;;29.63;32.03;100624.66;5002602;28;20026;-58
2021/07/09 08:15:52;;;;;;;1.25;0.00;;;30.10;47.20;;;29.92;32.04;100625.72;5001025;28;20362;-59
2021/07/09 08:18:18;;;;;;;0.20;0.00;;;30.20;47.70;;;30.04;32.24;100615.56;5007520;28;20209;-58
2021/07/09 08:20:46;;;;;;;4.25;0.10;;;30.40;47.60;;;30.30;31.78;100631.63;5008276;28;20125;-58
2021/07/09 08:23:12;;;;;;;0.55;0.10;;;30.50;47.50;;;30.16;31.96;100627.91;5008430;28;20034;-60
2021/07/09 08:25:38;;;;;;;0.20;0.00;;;30.60;47.30;;;29.44;32.71;100628.91;5008463;28;20045;-59
2021/07/09 08:28:07;;;;;;;0.40;0.08;;;30.00;47.50;;;28.97;33.84;100621.75;5008156;28;20044;-56
2021/07/09 08:30:33;;;;;;;1.38;0.00;;;29.50;48.60;;;28.78;34.04;100607.19;5008043;28;20038;-59
2021/07/09 08:32:59;;;;;;;1.15;0.10;;;29.20;48.90;;;28.80;33.14;100619.25;5008144;28;20034;-57
2021/07/09 08:35:25;;;;;;;0.40;0.10;;;29.20;48.20;;;28.92;33.63;100624.41;5008070;28;20069;-60
2021/07/09 08:37:52;;;;;;;2.95;0.00;;;29.30;48.70;;;29.22;32.80;100624.53;5008061;28;20037;-56
2021/07/09 08:40:18;;;;;;;1.65;0.03;;;29.40;48.70;;;29.49;32.69;100624.34;5008004;28;20501;-59
2021/07/09 08:42:46;;;;;;;1.35;0.10;;;29.70;48.30;;;29.48;32.63;100622.75;5008054;28;20568;-61
2021/07/09 08:45:12;;;;;;;0.75;0.10;;;29.80;48.00;;;29.27;33.55;100631.81;5007882;28;20371;-58
2021/07/09 08:47:41;;;;;;;2.03;0.00;;;29.60;48.90;;;29.25;33.31;100624.03;5007763;28;20176;-58
2021/07/09 08:50:10;;;;;;;0.55;0.00;;;29.70;48.20;;;29.27;33.77;100632.59;5007779;28;20509;-60
2021/07/09 08:52:37;;;;;;;3.08;0.10;;;29.50;49.20;;;29.49;33.00;100634.28;5006215;28;20066;-61
2021/07/09 08:55:12;;;;;;;1.15;0.10;;;29.60;48.90;;;29.24;32.53;100629.66;5007486;28;20430;-60
2021/07/09 08:57:48;;;;;;;0.55;0.05;;;29.60;48.10;;;28.70;33.21;100627.25;5007717;28;20073;-58
2021/07/09 09:00:32;;;;;;;0.30;0.10;;;29.10;48.50;;;28.64;33.92;100628.28;5007862;28;20121;-58
2021/07/09 09:02:58;;;;;;;3.33;0.13;;;29.10;48.80;;;28.47;34.36;100620.41;4998911;28;20054;-60
2021/07/09 09:05:29;;;;;;;0.30;0.00;;;29.00;49.10;;;29.32;33.39;100627.22;4987459;28;20612;-59
2021/07/09 09:08:07;;;;;;;0.55;0.00;;;29.40;49.80;;;28.98;32.92;100634.09;4988384;28;20042;-59
2021/07/09 09:10:47;;;;;;;1.92;0.10;;;29.20;48.10;;;29.11;34.26;100632.81;4986692;28;20372;-59
2021/07/09 09:13:18;;;;;;;2.10;0.10;;;29.30;49.30;;;29.98;32.94;100643.47;4988275;28;20039;-60
2021/07/09 09:15:59;;;;;;;1.70;0.03;;;29.90;49.20;;;30.50;32.91;100639.66;4987945;28;20445;-58
2021/07/09 09:18:29;;;;;;;1.10;0.10;;;30.40;49.10;;;29.67;33.48;100642.66;4986421;28;20387;-59
2021/07/09 09:21:11;;;;;;;1.90;0.08;;;30.10;49.00;;;30.16;32.88;100641.34;4970305;28;20030;-58
2021/07/09 09:23:56;;;;;;;2.08;0.05;;;30.40;48.70;;;29.98;32.38;100642.66;4987814;28;20034;-59
2021/07/09 09:26:45;;;;;;;2.85;0.10;;;30.30;48.40;;;30.18;33.32;100642.69;4987475;28;20054;-60
2021/07/09 09:29:25;;;;;;;0.60;0.10;;;30.30;48.90;;;30.24;33.12;100646.19;4988142;28;20487;-59
2021/07/09 09:31:57;;;;;;;2.17;0.10;;;30.40;48.60;;;30.63;31.71;100647.19;4988304;28;20049;-60
2021/07/09 09:34:35;;;;;;;0.77;0.10;;;30.70;47.90;;;29.98;32.70;100643.47;4988137;28;20038;-61
2021/07/09 09:37:03;;;;;;;1.25;0.20;;;30.40;48.40;;;30.66;31.96;100646.66;4987656;28;20042;-60
2021/07/09 09:39:29;;;;;;;0.22;0.03;;;30.70;48.10;;;30.96;31.61;100647.63;4987827;28;20038;-61
2021/07/09 09:42:08;;;;;;;0.52;0.10;;;31.10;47.90;;;30.52;30.89;100648.25;4988008;28;20389;-60
2021/07/09 09:44:34;;;;;;;1.35;0.10;;;31.00;46.90;;;30.48;32.19;100647.19;4988184;28;20419;-59
2021/07/09 09:47:24;;;;;;;0.55;0.10;;;30.80;47.90;;;30.86;31.37;100653.84;4987688;28;20085;-61
2021/07/09 09:49:57;;;;;;;1.13;0.10;;;31.00;47.80;;;31.23;31.41;100648.03;4995329;28;20124;-59
2021/07/09 09:52:50;;;;;;;1.25;0.15;;;31.40;48.10;;;31.12;31.13;100649.16;5007072;28;20504;-60
2021/07/09 09:55:31;;;;;;;1.45;0.10;;;31.40;47.30;;;31.01;30.54;100650.28;5007388;28;20034;-60
2021/07/09 09:58:15;;;;;;;0.82;0.00;;;31.50;47.00;;;30.32;31.65;100642.91;5007953;28;20033;-60
2021/07/09 10:00:45;;;;;;;1.60;0.00;;;30.70;47.40;;;30.58;31.17;100647.22;5007397;28;20101;-61
2021/07/09 10:03:12;;;;;;;1.60;0.10;;;30.80;47.20;;;30.48;32.31;100641.00;5007459;28;20127;-60
2021/07/09 10:05:44;;;;;;;0.20;0.08;;;30.70;48.40;;;31.06;32.07;100639.50;5007506;28;20516;-60
2021/07/09 10:08:13;;;;;;;1.27;0.10;;;31.00;48.60;;;31.07;30.92;100645.69;5007320;28;20064;-59
2021/07/09 10:10:44;;;;;;;1.42;0.03;;;31.30;47.70;;;30.53;31.91;100636.44;5007340;28;20126;-62
2021/07/09 10:13:30;;;;;;;2.05;0.10;;;30.90;48.10;;;31.29;31.00;100651.50;5007455;28;20034;-59
2021/07/09 10:15:56;;;;;;;4.90;0.20;;;31.40;47.80;;;31.38;31.19;100643.66;5008062;28;20034;-61
2021/07/09 10:18:23;;;;;;;0.40;0.10;;;31.50;47.00;;;31.09;30.98;100647.03;5010864;28;20109;-60